Time;durP1;ratioP1;P1;durP2;ratioP2;P2;SDS_P1;SDS_P2;PMS_P1;PMS_P2;Temp;Humidity;BMP_temperature;BMP_pressure;BME280_temperature;BME280_humidity;BME280_pressure;Samples;Min_cycle;Max_cycle;Signal;HPM_P1;HPM_P2
2024/01/11 00:01:27;;;;;;;61.07;38.83;;;-5.70;99.90;;;;;;5144458;27;20402;-89
2024/01/11 00:03:53;;;;;;;59.67;37.20;;;-5.50;99.90;;;;;;5126910;28;20909;-89
2024/01/11 00:06:18;;;;;;;58.37;37.03;;;-5.70;99.90;;;;;;5162117;27;20425;-89
2024/01/11 00:08:44;;;;;;;56.17;36.15;;;-5.80;99.90;;;;;;5143725;27;20398;-89
2024/01/11 00:11:10;;;;;;;56.65;36.17;;;-5.80;99.90;;;;;;5144931;27;20508;-89
2024/01/11 00:13:36;;;;;;;59.38;37.03;;;-5.80;99.90;;;;;;5109423;28;20395;-89
2024/01/11 00:16:01;;;;;;;56.55;36.42;;;-5.90;99.90;;;;;;5146782;27;20437;-90
2024/01/11 00:18:27;;;;;;;58.78;36.22;;;-5.90;99.90;;;;;;5147934;27;20398;-89
2024/01/11 00:20:52;;;;;;;61.83;38.40;;;-5.90;99.90;;;;;;5148394;27;20387;-89
2024/01/11 00:23:18;;;;;;;63.57;37.67;;;-5.90;99.90;;;;;;5147615;27;20429;-89
2024/01/11 00:25:44;;;;;;;59.67;36.50;;;-5.90;99.90;;;;;;5148000;27;20494;-89
2024/01/11 00:28:09;;;;;;;64.05;38.65;;;-5.90;99.90;;;;;;5165656;27;20442;-89
2024/01/11 00:30:35;;;;;;;60.78;38.30;;;-5.90;99.90;;;;;;5147648;27;20403;-89
2024/01/11 00:33:00;;;;;;;59.07;37.87;;;-5.70;99.90;;;;;;5149086;27;20402;-89
2024/01/11 00:35:26;;;;;;;61.63;38.17;;;-5.90;99.90;;;;;;5147052;27;20430;-89
2024/01/11 00:37:52;;;;;;;63.70;39.50;;;-5.90;99.90;;;;;;5148313;27;20504;-89
2024/01/11 00:40:17;;;;;;;63.97;39.20;;;-5.80;99.90;;;;;;5147873;27;20901;-88
2024/01/11 00:42:43;;;;;;;64.60;39.40;;;-6.00;99.90;;;;;;5147746;27;20897;-90
2024/01/11 00:45:09;;;;;;;66.50;39.20;;;-6.00;99.90;;;;;;5148040;27;20410;-89
2024/01/11 00:47:34;;;;;;;69.17;40.63;;;-6.00;99.90;;;;;;5147581;27;20449;-88
2024/01/11 00:50:00;;;;;;;63.50;38.80;;;-6.00;99.90;;;;;;5147939;27;20410;-89
2024/01/11 00:52:26;;;;;;;66.77;40.63;;;-6.00;99.90;;;;;;5146989;27;20403;-89
2024/01/11 00:54:51;;;;;;;65.40;39.53;;;-6.00;99.90;;;;;;5148390;27;20415;-89
2024/01/11 00:57:17;;;;;;;69.53;41.97;;;-6.00;99.90;;;;;;5112883;27;20398;-88
2024/01/11 00:59:42;;;;;;;69.20;41.28;;;-6.00;99.90;;;;;;5147901;27;20509;-90
2024/01/11 01:02:08;;;;;;;74.27;43.40;;;-6.00;99.90;;;;;;5147517;27;20951;-87
2024/01/11 01:04:38;;;;;;;77.30;43.80;;;-6.00;99.90;;;;;;5147132;27;20387;-88
2024/01/11 01:07:04;;;;;;;82.78;44.17;;;-5.90;99.90;;;;;;5113627;27;20430;-89
2024/01/11 01:09:30;;;;;;;72.63;42.80;;;-5.90;99.90;;;;;;5147150;27;20785;-89
2024/01/11 01:11:56;;;;;;;80.20;43.97;;;-5.90;99.90;;;;;;5165600;27;20452;-89
2024/01/11 01:14:21;;;;;;;76.18;42.35;;;-5.90;99.90;;;;;;5128945;27;20925;-89
2024/01/11 01:16:47;;;;;;;82.83;44.60;;;-5.90;99.90;;;;;;5147628;27;20489;-89
2024/01/11 01:19:12;;;;;;;82.27;45.20;;;-5.90;99.90;;;;;;5149044;27;20472;-89
2024/01/11 01:21:38;;;;;;;83.63;45.93;;;-5.80;99.90;;;;;;5133129;27;20861;-88
2024/01/11 01:24:04;;;;;;;78.82;43.80;;;-5.90;99.90;;;;;;5133160;27;21155;-89
2024/01/11 01:26:29;;;;;;;73.45;42.60;;;-5.90;99.90;;;;;;5132216;27;20417;-89
2024/01/11 01:28:57;;;;;;;79.03;44.23;;;-5.90;99.90;;;;;;5132998;27;20555;-90
2024/01/11 01:31:22;;;;;;;80.20;44.57;;;-5.90;99.90;;;;;;5132638;27;20502;-88
2024/01/11 01:33:49;;;;;;;76.80;43.63;;;-5.90;99.90;;;;;;5151018;27;20408;-89
2024/01/11 01:36:14;;;;;;;73.63;42.42;;;-5.90;99.90;;;;;;5132461;27;20461;-89
2024/01/11 01:38:40;;;;;;;72.87;41.87;;;-5.90;99.90;;;;;;5133141;27;20405;-88
2024/01/11 01:41:05;;;;;;;73.45;42.40;;;-6.00;99.90;;;;;;5133151;27;20824;-89
2024/01/11 01:43:31;;;;;;;70.07;40.10;;;-6.00;99.90;;;;;;5129508;27;20394;-89
2024/01/11 01:45:57;;;;;;;70.40;41.73;;;-6.00;99.90;;;;;;5112850;27;20391;-89
2024/01/11 01:48:23;;;;;;;76.18;43.53;;;-6.10;99.90;;;;;;5111091;27;20761;-89
2024/01/11 01:50:50;;;;;;;73.53;42.43;;;-6.10;99.90;;;;;;5129814;27;20417;-89
2024/01/11 01:53:28;;;;;;;76.50;43.58;;;-6.10;99.90;;;;;;5111142;27;20942;-88
2024/01/11 01:55:54;;;;;;;72.78;42.30;;;-6.10;99.90;;;;;;5112082;27;20422;-89
2024/01/11 01:58:21;;;;;;;73.45;42.80;;;-6.10;99.90;;;;;;5112244;27;20420;-89
2024/01/11 02:00:50;;;;;;;74.75;42.33;;;-6.10;99.90;;;;;;5111757;27;20401;-89
2024/01/11 02:03:16;;;;;;;74.88;42.63;;;-6.10;99.90;;;;;;5112254;27;20399;-89
2024/01/11 02:05:42;;;;;;;78.80;43.83;;;-6.10;99.90;;;;;;5111712;27;20401;-89
2024/01/11 02:08:11;;;;;;;79.63;45.10;;;-6.10;99.90;;;;;;5112240;27;20406;-89
2024/01/11 02:10:37;;;;;;;94.45;47.80;;;-6.00;99.90;;;;;;5114646;27;20397;-89
2024/01/11 02:13:04;;;;;;;91.65;47.00;;;-6.00;99.90;;;;;;5132809;27;20409;-90
2024/01/11 02:15:30;;;;;;;70.75;42.28;;;-6.00;99.90;;;;;;5132458;27;20409;-89
2024/01/11 02:17:56;;;;;;;77.05;42.28;;;-6.00;99.90;;;;;;5149957;27;20393;-89
2024/01/11 02:20:21;;;;;;;83.33;44.53;;;-6.10;99.90;;;;;;5132387;27;20447;-89
2024/01/11 02:22:52;;;;;;;77.75;42.88;;;-6.10;99.90;;;;;;5148481;27;20385;-89
2024/01/11 02:25:18;;;;;;;74.90;41.73;;;-6.20;99.90;;;;;;5132684;27;20478;-88
2024/01/11 02:27:50;;;;;;;75.67;41.93;;;-6.20;99.90;;;;;;5131853;27;20397;-89
2024/01/11 02:30:17;;;;;;;85.85;45.85;;;-6.20;99.90;;;;;;5132454;27;20401;-90
2024/01/11 02:32:48;;;;;;;78.90;42.63;;;-6.20;99.90;;;;;;5132186;27;20911;-89
2024/01/11 02:35:18;;;;;;;84.20;44.70;;;-6.20;99.90;;;;;;5124268;27;20992;-90
2024/01/11 02:37:46;;;;;;;82.97;45.22;;;-6.20;99.90;;;;;;5111555;27;20447;-88
2024/01/11 02:40:13;;;;;;;81.47;44.58;;;-6.10;99.90;;;;;;5110700;27;20395;-89
2024/01/11 02:42:39;;;;;;;90.22;47.08;;;-6.10;99.90;;;;;;5112183;27;20403;-88
2024/01/11 02:45:05;;;;;;;90.50;46.50;;;-6.00;99.90;;;;;;5127434;27;20402;-89
2024/01/11 02:47:31;;;;;;;90.90;47.40;;;-6.00;99.90;;;;;;5111447;27;20402;-89
2024/01/11 02:49:57;;;;;;;85.35;46.15;;;-5.90;99.90;;;;;;5111186;27;20903;-89
2024/01/11 02:52:23;;;;;;;92.32;47.85;;;-5.90;99.90;;;;;;5111081;27;20391;-89
2024/01/11 02:54:49;;;;;;;81.07;45.73;;;-5.90;99.90;;;;;;5110953;27;20454;-90
2024/01/11 02:57:15;;;;;;;85.28;45.67;;;-5.70;99.90;;;;;;5128325;27;20438;-89
2024/01/11 02:59:41;;;;;;;85.13;45.25;;;-5.50;99.90;;;;;;5111971;27;20434;-89
2024/01/11 03:02:07;;;;;;;81.82;44.22;;;-6.00;99.90;;;;;;5110260;27;20395;-89
2024/01/11 03:04:33;;;;;;;76.82;43.05;;;-5.80;99.90;;;;;;5128530;27;20429;-89
2024/01/11 03:06:58;;;;;;;77.87;43.77;;;-6.00;99.90;;;;;;5124347;27;20985;-89
2024/01/11 03:09:24;;;;;;;94.03;47.13;;;-6.00;99.90;;;;;;5124040;27;20400;-90
2024/01/11 03:11:49;;;;;;;97.40;47.85;;;-6.00;99.90;;;;;;5124614;27;20888;-90
2024/01/11 03:14:15;;;;;;;88.55;43.97;;;-6.00;99.90;;;;;;5124347;27;20515;-89
2024/01/11 03:16:41;;;;;;;101.33;49.13;;;-6.00;99.90;;;;;;5124746;27;20408;-88
2024/01/11 03:19:07;;;;;;;96.75;48.83;;;-6.00;99.90;;;;;;5123718;27;20411;-89
2024/01/11 03:21:32;;;;;;;78.75;43.75;;;-6.00;99.90;;;;;;5142076;27;20485;-89
2024/01/11 03:23:59;;;;;;;88.63;44.93;;;-6.00;99.90;;;;;;5140987;27;20412;-89
2024/01/11 03:26:25;;;;;;;83.27;44.93;;;-6.00;99.90;;;;;;5107451;28;20439;-89
2024/01/11 03:28:51;;;;;;;82.70;44.23;;;-6.10;99.90;;;;;;5141539;27;20444;-89
2024/01/11 03:31:16;;;;;;;78.40;43.57;;;-6.10;99.90;;;;;;5123879;27;20392;-91
2024/01/11 03:33:42;;;;;;;78.90;43.27;;;-6.10;99.90;;;;;;5124614;27;20405;-89
2024/01/11 03:36:09;;;;;;;86.83;44.70;;;-6.20;99.90;;;;;;5123385;27;20452;-90
2024/01/11 03:38:35;;;;;;;80.68;44.25;;;-6.20;99.90;;;;;;5090706;28;20408;-89
2024/01/11 03:41:00;;;;;;;75.30;41.30;;;-6.20;99.90;;;;;;5123236;27;20408;-87
2024/01/11 03:43:26;;;;;;;79.17;42.07;;;-6.20;99.90;;;;;;5124481;27;20409;-89
2024/01/11 03:45:51;;;;;;;84.35;44.53;;;-6.20;99.90;;;;;;5123912;27;20487;-90
2024/01/11 03:48:17;;;;;;;77.47;42.38;;;-6.20;99.90;;;;;;5123880;28;20914;-90
2024/01/11 03:50:43;;;;;;;79.17;43.23;;;-6.20;99.90;;;;;;5123696;27;20929;-90
2024/01/11 03:53:08;;;;;;;79.13;43.40;;;-6.20;99.90;;;;;;5123779;28;20396;-89
2024/01/11 03:55:34;;;;;;;72.82;41.33;;;-6.20;99.90;;;;;;5124256;28;20444;-89
2024/01/11 03:57:59;;;;;;;79.43;43.17;;;-6.20;99.90;;;;;;5140662;27;21021;-88
2024/01/11 04:00:25;;;;;;;74.88;41.60;;;-6.30;99.90;;;;;;5124160;27;20408;-89
2024/01/11 04:02:50;;;;;;;81.17;42.70;;;-6.20;99.90;;;;;;5123317;27;20453;-90
2024/01/11 04:05:16;;;;;;;83.80;43.77;;;-6.30;99.90;;;;;;5124012;28;20464;-88
2024/01/11 04:07:42;;;;;;;84.65;44.80;;;-6.30;99.90;;;;;;5106865;28;20409;-89
2024/01/11 04:10:11;;;;;;;80.73;44.03;;;-6.30;99.90;;;;;;5106535;28;20971;-90
2024/01/11 04:12:39;;;;;;;81.13;43.78;;;-6.30;99.90;;;;;;5107222;28;20408;-89
2024/01/11 04:15:05;;;;;;;78.80;43.42;;;-6.10;99.90;;;;;;5122849;27;20450;-89
2024/01/11 04:17:31;;;;;;;81.55;43.78;;;-6.30;99.90;;;;;;5090527;28;20385;-89
2024/01/11 04:19:57;;;;;;;71.82;40.88;;;-6.20;99.90;;;;;;5123348;27;20479;-89
2024/01/11 04:22:23;;;;;;;83.55;43.17;;;-6.30;99.90;;;;;;5106745;28;20463;-90
2024/01/11 04:24:48;;;;;;;74.55;41.45;;;-6.30;99.90;;;;;;5106018;28;21168;-89
2024/01/11 04:27:14;;;;;;;78.05;43.17;;;-6.30;99.90;;;;;;5123513;27;20412;-89
2024/01/11 04:29:40;;;;;;;74.85;42.13;;;-6.30;99.90;;;;;;5123539;27;20400;-88
2024/01/11 04:32:05;;;;;;;78.75;43.97;;;-6.30;99.90;;;;;;5140332;27;20474;-90
2024/01/11 04:34:31;;;;;;;82.30;43.77;;;-6.20;99.90;;;;;;5140925;27;20411;-90
2024/01/11 04:36:57;;;;;;;90.07;44.80;;;-6.10;99.90;;;;;;5109425;28;20406;-90
2024/01/11 04:39:22;;;;;;;96.20;47.53;;;-6.10;99.90;;;;;;5110656;28;20767;-90
2024/01/11 04:41:48;;;;;;;86.53;44.70;;;-5.90;99.90;;;;;;5109516;28;20422;-89
2024/01/11 04:44:14;;;;;;;83.18;44.08;;;-5.90;99.90;;;;;;5110160;28;20395;-89
2024/01/11 04:46:40;;;;;;;81.60;44.17;;;-5.80;99.90;;;;;;5109493;28;20440;-89
2024/01/11 04:49:05;;;;;;;82.00;44.50;;;-5.80;99.90;;;;;;5109506;28;20395;-90
2024/01/11 04:51:31;;;;;;;78.70;42.23;;;-5.70;99.90;;;;;;5109684;28;20409;-88
2024/01/11 04:53:57;;;;;;;83.05;44.40;;;-5.60;99.90;;;;;;5126423;28;20905;-90
2024/01/11 04:56:22;;;;;;;86.32;45.75;;;-5.60;99.90;;;;;;5110218;28;20414;-90
2024/01/11 04:58:48;;;;;;;90.82;45.42;;;-5.50;99.90;;;;;;5126235;27;20402;-90
2024/01/11 05:01:18;;;;;;;94.23;48.27;;;-5.30;99.90;;;;;;5110392;27;20456;-90
2024/01/11 05:03:45;;;;;;;96.67;48.20;;;-5.20;99.90;;;;;;5129886;27;20942;-91
2024/01/11 05:06:18;;;;;;;103.60;48.97;;;-5.10;99.90;;;;;;5116866;27;20903;-89
2024/01/11 05:08:45;;;;;;;94.82;48.28;;;-5.00;99.90;;;;;;5134339;27;20412;-90
2024/01/11 05:11:17;;;;;;;99.20;49.22;;;-4.90;99.90;;;;;;5133308;27;20444;-90
2024/01/11 05:13:43;;;;;;;91.70;47.57;;;-4.80;99.90;;;;;;5134047;27;20417;-90
2024/01/11 05:16:21;;;;;;;95.10;48.90;;;-4.70;99.90;;;;;;5132999;27;20430;-89
2024/01/11 05:18:47;;;;;;;90.80;48.72;;;-4.60;99.90;;;;;;5134280;27;20416;-91
2024/01/11 05:21:12;;;;;;;104.47;51.55;;;-4.50;99.90;;;;;;5133838;27;20397;-88
2024/01/11 05:23:38;;;;;;;99.70;51.00;;;-4.40;99.90;;;;;;5150151;27;20409;-89
2024/01/11 05:26:03;;;;;;;100.93;49.90;;;-4.30;99.90;;;;;;5115068;27;20410;-90
2024/01/11 05:28:29;;;;;;;94.85;48.10;;;-4.20;99.90;;;;;;5112413;27;20434;-89
2024/01/11 05:30:55;;;;;;;98.35;50.03;;;-3.90;99.90;;;;;;5113308;27;20435;-90
2024/01/11 05:33:20;;;;;;;97.20;49.75;;;-4.00;99.90;;;;;;5112216;27;20394;-90
2024/01/11 05:35:46;;;;;;;92.20;47.50;;;-3.90;99.90;;;;;;5130356;27;20944;-91
2024/01/11 05:38:11;;;;;;;103.07;50.80;;;-3.90;99.90;;;;;;5132131;27;20400;-90
2024/01/11 05:40:37;;;;;;;96.30;50.03;;;-3.90;99.90;;;;;;5118276;27;20850;-92
2024/01/11 05:43:03;;;;;;;99.55;50.40;;;-3.80;99.90;;;;;;5113523;27;20398;-89
2024/01/11 05:45:29;;;;;;;108.13;54.13;;;-3.70;99.90;;;;;;5110927;27;20987;-90
2024/01/11 05:47:55;;;;;;;104.15;52.97;;;-3.60;99.90;;;;;;5113034;27;20494;-90
2024/01/11 05:50:20;;;;;;;100.22;51.28;;;-3.60;99.90;;;;;;5128730;27;20403;-89
2024/01/11 05:52:46;;;;;;;98.82;51.95;;;-3.50;99.90;;;;;;5112691;27;20545;-90
2024/01/11 05:55:12;;;;;;;98.18;51.45;;;-3.40;99.90;;;;;;5110997;27;20988;-90
2024/01/11 05:57:37;;;;;;;95.23;50.23;;;-3.40;99.90;;;;;;5112114;27;20413;-89
2024/01/11 06:00:05;;;;;;;89.97;49.70;;;-3.30;99.90;;;;;;5139905;27;20408;-89
2024/01/11 06:02:31;;;;;;;100.40;53.00;;;-3.30;99.90;;;;;;5105408;27;20398;-90
2024/01/11 06:04:57;;;;;;;93.97;49.57;;;-3.20;99.90;;;;;;5147053;27;20402;-89
2024/01/11 06:07:23;;;;;;;87.53;48.67;;;-3.20;99.90;;;;;;5146097;27;20829;-89
2024/01/11 06:09:49;;;;;;;92.00;49.42;;;-3.10;99.90;;;;;;5146023;27;20452;-89
2024/01/11 06:12:15;;;;;;;89.38;49.33;;;-3.10;99.90;;;;;;5146482;27;20407;-89
2024/01/11 06:14:40;;;;;;;96.43;50.58;;;-3.00;99.90;;;;;;5112226;27;20434;-89
2024/01/11 06:17:06;;;;;;;90.35;49.75;;;-3.00;99.90;;;;;;5111405;27;20399;-89
2024/01/11 06:19:32;;;;;;;96.67;49.87;;;-2.90;99.90;;;;;;5111521;27;20399;-88
2024/01/11 06:21:58;;;;;;;90.75;49.95;;;-2.90;99.90;;;;;;5146440;27;20399;-89
2024/01/11 06:24:23;;;;;;;92.07;49.97;;;-2.80;99.90;;;;;;5110774;27;20463;-89
2024/01/11 06:26:49;;;;;;;95.07;49.37;;;-2.60;99.90;;;;;;5146580;27;20761;-89
2024/01/11 06:29:15;;;;;;;96.20;49.63;;;-2.70;99.90;;;;;;5145039;27;20941;-88
2024/01/11 06:31:41;;;;;;;90.27;49.30;;;-2.70;99.90;;;;;;5163777;27;20468;-90
2024/01/11 06:34:06;;;;;;;88.20;49.40;;;-2.60;99.90;;;;;;5128236;27;20411;-90
2024/01/11 06:36:32;;;;;;;92.18;49.15;;;-2.60;99.90;;;;;;5146136;27;20468;-90
2024/01/11 06:38:57;;;;;;;95.22;49.63;;;-2.60;99.90;;;;;;5145705;27;20386;-89
2024/01/11 06:41:24;;;;;;;95.53;51.10;;;-2.50;99.90;;;;;;5145591;27;20888;-90
2024/01/11 06:43:49;;;;;;;92.25;50.03;;;-2.50;99.90;;;;;;5163707;27;20766;-90
2024/01/11 06:46:20;;;;;;;89.55;50.00;;;-2.60;99.90;;;;;;5144871;27;20408;-90
2024/01/11 06:48:45;;;;;;;91.10;51.22;;;-2.40;99.90;;;;;;5111838;27;20824;-91
2024/01/11 06:51:15;;;;;;;90.43;49.03;;;-2.20;99.90;;;;;;5127870;27;20555;-90
2024/01/11 06:53:41;;;;;;;89.53;48.80;;;-2.20;99.90;;;;;;5111090;27;20407;-90
2024/01/11 06:56:17;;;;;;;88.35;49.33;;;-2.30;99.90;;;;;;5145415;27;20419;-90
2024/01/11 06:58:44;;;;;;;82.72;48.42;;;-2.30;99.90;;;;;;5110696;27;20411;-88
2024/01/11 07:01:10;;;;;;;85.70;49.15;;;-2.20;99.90;;;;;;5111097;27;20426;-90
2024/01/11 07:03:37;;;;;;;88.28;48.90;;;-1.90;99.90;;;;;;5110731;27;20402;-89
2024/01/11 07:06:03;;;;;;;89.57;50.20;;;-2.20;99.90;;;;;;5111628;27;20893;-90
2024/01/11 07:08:29;;;;;;;90.22;48.20;;;-2.10;99.90;;;;;;5110504;27;20395;-90
2024/01/11 07:10:55;;;;;;;93.43;50.92;;;-2.10;99.90;;;;;;5111206;27;20397;-90
2024/01/11 07:13:21;;;;;;;95.53;52.23;;;-2.00;99.90;;;;;;5127918;27;20387;-90
2024/01/11 07:15:48;;;;;;;88.82;49.08;;;-2.00;99.90;;;;;;5127487;27;20407;-89
2024/01/11 07:18:14;;;;;;;88.32;48.60;;;-2.00;99.90;;;;;;5111788;27;20399;-88
2024/01/11 07:20:40;;;;;;;86.38;48.45;;;-1.90;99.90;;;;;;5110306;27;20765;-89
2024/01/11 07:23:06;;;;;;;94.80;49.88;;;-1.60;99.90;;;;;;5110279;27;20945;-90
2024/01/11 07:25:32;;;;;;;91.18;50.20;;;-1.80;99.90;;;;;;5108340;27;20434;-90
2024/01/11 07:27:58;;;;;;;89.18;49.08;;;-1.90;99.90;;;;;;5111199;27;20391;-90
2024/01/11 07:30:24;;;;;;;97.95;51.22;;;-1.80;99.90;;;;;;5144655;27;20994;-90
2024/01/11 07:32:49;;;;;;;89.82;49.25;;;-1.80;99.90;;;;;;5162105;27;20434;-89
2024/01/11 07:35:15;;;;;;;87.30;48.58;;;-1.80;99.90;;;;;;5144791;27;20427;-89
2024/01/11 07:37:41;;;;;;;95.38;49.08;;;-1.70;99.90;;;;;;5144672;27;20397;-90
2024/01/11 07:40:10;;;;;;;90.35;49.25;;;-1.70;99.90;;;;;;5144916;27;20437;-89
2024/01/11 07:42:38;;;;;;;99.03;51.85;;;-1.70;99.90;;;;;;5110136;27;20467;-89
2024/01/11 07:45:05;;;;;;;93.38;51.17;;;-1.70;99.90;;;;;;5124552;27;20453;-89
2024/01/11 07:47:31;;;;;;;87.38;49.65;;;-1.60;99.90;;;;;;5089241;28;20447;-89
2024/01/11 07:49:56;;;;;;;88.22;49.20;;;-1.60;99.90;;;;;;5089717;28;20428;-90
2024/01/11 07:52:22;;;;;;;85.05;49.53;;;-1.60;99.90;;;;;;5090151;28;20424;-89
2024/01/11 07:54:47;;;;;;;87.90;49.70;;;-1.50;99.90;;;;;;5125536;27;20432;-90
2024/01/11 07:57:13;;;;;;;83.03;49.50;;;-1.50;99.90;;;;;;5131231;27;20405;-89
2024/01/11 07:59:39;;;;;;;82.32;50.00;;;-1.50;99.90;;;;;;5130026;27;20432;-90
2024/01/11 08:02:05;;;;;;;81.55;49.58;;;-1.50;99.90;;;;;;5131660;27;20393;-90
2024/01/11 08:04:31;;;;;;;79.13;48.30;;;-1.40;99.90;;;;;;5123591;27;20430;-90
2024/01/11 08:06:59;;;;;;;78.38;49.40;;;-1.40;99.90;;;;;;5110027;28;20409;-90
2024/01/11 08:09:25;;;;;;;77.35;48.42;;;-1.40;99.90;;;;;;5110254;28;20399;-89
2024/01/11 08:11:53;;;;;;;72.80;46.90;;;-1.40;99.90;;;;;;5110259;27;20806;-90
2024/01/11 08:14:20;;;;;;;77.05;48.47;;;-1.30;99.90;;;;;;5110492;27;20970;-90
2024/01/11 08:16:45;;;;;;;76.57;47.35;;;-1.30;99.90;;;;;;5109653;28;20481;-89
2024/01/11 08:19:13;;;;;;;77.47;47.87;;;-1.30;99.90;;;;;;5110586;28;20426;-89
2024/01/11 08:21:39;;;;;;;83.38;50.17;;;-1.20;99.90;;;;;;5126695;27;20391;-89
2024/01/11 08:24:05;;;;;;;82.53;49.10;;;-1.20;99.90;;;;;;5110205;28;20497;-90
2024/01/11 08:26:31;;;;;;;76.60;47.25;;;-1.20;99.90;;;;;;5126687;27;20398;-89
2024/01/11 08:28:56;;;;;;;73.67;45.40;;;-1.10;99.90;;;;;;5126873;27;20526;-90
2024/01/11 08:31:22;;;;;;;77.90;47.08;;;-1.10;99.90;;;;;;5127853;28;20404;-89
2024/01/11 08:33:48;;;;;;;79.40;48.47;;;-1.00;99.90;;;;;;5109671;28;20394;-89
2024/01/11 08:36:13;;;;;;;77.75;47.85;;;-1.00;99.90;;;;;;5127988;27;20422;-89
2024/01/11 08:38:40;;;;;;;70.23;46.17;;;-1.00;99.90;;;;;;5113488;27;20398;-90
2024/01/11 08:41:06;;;;;;;74.15;45.92;;;-0.90;99.90;;;;;;5131739;27;20402;-90
2024/01/11 08:43:32;;;;;;;72.82;44.30;;;-0.80;99.90;;;;;;5113351;27;20406;-89
2024/01/11 08:45:58;;;;;;;74.17;45.83;;;-0.80;99.90;;;;;;5114049;27;20398;-90
2024/01/11 08:48:23;;;;;;;75.28;45.63;;;-0.80;99.90;;;;;;5130887;27;20460;-89
2024/01/11 08:50:49;;;;;;;81.18;46.42;;;-0.60;99.90;;;;;;5130723;27;20751;-89
2024/01/11 08:53:15;;;;;;;74.68;46.53;;;-0.70;99.90;;;;;;5114247;27;20452;-90
2024/01/11 08:55:42;;;;;;;82.00;47.17;;;-0.60;99.90;;;;;;5118525;27;20412;-89
2024/01/11 08:58:08;;;;;;;69.88;44.40;;;-0.40;99.90;;;;;;5152154;27;20433;-90
2024/01/11 09:00:33;;;;;;;77.90;47.08;;;-0.50;99.90;;;;;;5133031;27;20399;-90
2024/01/11 09:02:59;;;;;;;69.00;45.13;;;-0.40;99.90;;;;;;5133904;27;20405;-90
2024/01/11 09:05:25;;;;;;;72.10;44.75;;;-0.40;99.90;;;;;;5151469;27;20891;-89
2024/01/11 09:07:50;;;;;;;74.03;45.70;;;-0.30;99.90;;;;;;5133400;27;20429;-90
2024/01/11 09:10:16;;;;;;;68.60;43.37;;;-0.30;99.90;;;;;;5151636;27;20991;-89
2024/01/11 09:12:42;;;;;;;77.78;46.13;;;-0.10;99.90;;;;;;5133236;27;20800;-90
2024/01/11 09:15:08;;;;;;;67.57;42.50;;;-0.20;99.90;;;;;;5117181;27;20410;-90
2024/01/11 09:17:33;;;;;;;71.95;44.30;;;-0.10;99.90;;;;;;5112637;27;20393;-90
2024/01/11 09:19:59;;;;;;;68.07;43.15;;;-0.10;99.90;;;;;;5137582;27;20452;-89
2024/01/11 09:22:25;;;;;;;73.80;43.77;;;0.00;99.90;;;;;;5133103;27;20812;-89
2024/01/11 09:24:52;;;;;;;70.85;43.20;;;0.00;99.90;;;;;;5150732;27;20484;-90
2024/01/11 09:27:18;;;;;;;74.35;45.65;;;0.10;99.90;;;;;;5150941;27;20409;-90
2024/01/11 09:29:44;;;;;;;60.30;41.10;;;0.30;99.90;;;;;;5133342;27;20395;-90
2024/01/11 09:32:10;;;;;;;69.47;46.00;;;0.30;99.90;;;;;;5133791;27;20407;-90
2024/01/11 09:34:35;;;;;;;75.18;51.55;;;0.30;99.90;;;;;;5133077;27;20795;-91
2024/01/11 09:37:01;;;;;;;78.57;54.17;;;0.30;99.90;;;;;;5134338;27;20397;-89
2024/01/11 09:39:27;;;;;;;65.23;44.20;;;0.40;99.90;;;;;;5132781;27;20483;-90
2024/01/11 09:41:58;;;;;;;63.73;42.07;;;0.40;99.90;;;;;;5133611;27;20385;-90
2024/01/11 09:44:25;;;;;;;60.50;40.03;;;0.50;99.90;;;;;;5133295;27;20389;-90
2024/01/11 09:46:52;;;;;;;56.28;38.70;;;0.60;99.90;;;;;;5133080;27;20733;-90
2024/01/11 09:49:21;;;;;;;61.93;40.13;;;0.80;99.90;;;;;;5132817;27;20789;-89
2024/01/11 09:51:48;;;;;;;58.63;39.63;;;0.70;99.90;;;;;;5133024;27;20763;-90
2024/01/11 09:54:15;;;;;;;53.53;36.75;;;0.80;99.90;;;;;;5133389;27;20431;-90
2024/01/11 09:56:42;;;;;;;52.25;36.50;;;0.80;99.90;;;;;;5113928;27;20478;-90
2024/01/11 09:59:09;;;;;;;56.33;38.00;;;0.90;99.90;;;;;;5112066;27;20402;-90
2024/01/11 10:01:35;;;;;;;56.13;37.08;;;1.10;99.90;;;;;;5112003;27;20491;-88
2024/01/11 10:04:03;;;;;;;56.55;37.53;;;1.00;99.90;;;;;;5112376;27;20403;-89
2024/01/11 10:06:33;;;;;;;56.67;38.17;;;1.00;99.90;;;;;;5112594;27;20394;-89
2024/01/11 10:08:59;;;;;;;55.78;37.20;;;1.00;99.90;;;;;;5128662;27;20402;-90
2024/01/11 10:11:25;;;;;;;53.33;36.42;;;1.10;99.90;;;;;;5129422;27;20402;-89
2024/01/11 10:13:57;;;;;;;52.55;36.30;;;1.10;99.90;;;;;;5114900;27;20423;-91
2024/01/11 10:16:22;;;;;;;58.67;37.78;;;1.10;99.90;;;;;;5132764;27;20420;-90
2024/01/11 10:18:48;;;;;;;49.60;35.77;;;1.20;99.90;;;;;;5132663;27;20496;-90
2024/01/11 10:21:13;;;;;;;54.50;37.70;;;1.20;99.90;;;;;;5132189;27;20531;-91
2024/01/11 10:23:39;;;;;;;51.67;36.03;;;1.20;99.90;;;;;;5132517;27;20409;-91
2024/01/11 10:26:07;;;;;;;48.90;35.90;;;1.30;99.90;;;;;;5113182;27;20432;-90
2024/01/11 10:28:37;;;;;;;53.42;37.30;;;1.20;99.90;;;;;;5136959;27;20391;-89
2024/01/11 10:31:06;;;;;;;50.47;35.50;;;1.20;99.90;;;;;;5090345;28;20403;-91
2024/01/11 10:33:34;;;;;;;52.10;36.30;;;1.20;99.90;;;;;;5091619;28;20409;-90
2024/01/11 10:36:00;;;;;;;54.10;37.63;;;1.20;99.90;;;;;;5090490;28;20436;-89
2024/01/11 10:38:27;;;;;;;52.35;36.05;;;1.20;99.90;;;;;;5110068;27;20953;-91
2024/01/11 10:40:55;;;;;;;53.83;36.47;;;1.20;99.90;;;;;;5112187;27;20469;-91
2024/01/11 10:43:22;;;;;;;51.30;35.88;;;1.20;99.90;;;;;;5110740;27;20436;-90
2024/01/11 10:45:53;;;;;;;61.28;42.50;;;1.30;99.90;;;;;;5111472;27;20467;-89
2024/01/11 10:48:21;;;;;;;55.83;37.50;;;1.30;99.90;;;;;;5110446;27;20406;-91
2024/01/11 10:50:52;;;;;;;52.53;37.30;;;1.30;99.90;;;;;;5111378;27;20909;-91
2024/01/11 10:53:56;;;;;;;54.10;36.70;;;1.40;99.90;;;;;;5110730;27;20399;-91
2024/01/11 10:56:23;;;;;;;49.20;34.03;;;1.40;99.90;;;;;;5050583;27;20936;-90
2024/01/11 10:58:50;;;;;;;44.97;31.80;;;1.50;99.90;;;;;;5111535;27;20397;-90
2024/01/11 11:01:17;;;;;;;44.55;31.50;;;1.50;99.90;;;;;;5110033;27;20391;-90
2024/01/11 11:03:44;;;;;;;43.17;30.30;;;1.50;99.90;;;;;;5111247;27;20402;-90
2024/01/11 11:06:11;;;;;;;44.70;31.63;;;1.50;99.90;;;;;;5110109;27;20399;-90
2024/01/11 11:08:37;;;;;;;44.92;32.15;;;1.50;99.90;;;;;;5110629;27;20402;-91
2024/01/11 11:11:08;;;;;;;46.90;32.53;;;1.50;99.90;;;;;;5126940;27;20402;-90
2024/01/11 11:13:36;;;;;;;47.17;31.92;;;1.50;99.90;;;;;;5106786;27;20394;-90
2024/01/11 11:16:05;;;;;;;47.50;32.75;;;1.60;99.90;;;;;;5145966;27;20445;-89
2024/01/11 11:18:34;;;;;;;47.75;32.35;;;1.60;99.90;;;;;;5110416;27;20399;-90
2024/01/11 11:21:01;;;;;;;46.10;31.83;;;1.60;99.90;;;;;;5128423;27;20398;-91
2024/01/11 11:23:26;;;;;;;46.20;31.67;;;1.70;99.90;;;;;;5144342;27;20879;-90
2024/01/11 11:25:55;;;;;;;46.23;31.43;;;1.70;99.90;;;;;;5110790;27;20448;-90
2024/01/11 11:28:22;;;;;;;43.85;30.70;;;1.70;99.90;;;;;;5131154;27;20405;-90
2024/01/11 11:30:51;;;;;;;47.33;31.40;;;1.70;99.90;;;;;;5130882;27;20496;-90
2024/01/11 11:33:24;;;;;;;43.95;30.63;;;2.00;99.90;;;;;;5131896;27;20389;-90
2024/01/11 11:35:53;;;;;;;45.38;31.00;;;1.80;99.90;;;;;;5122514;27;20430;-91
2024/01/11 11:38:26;;;;;;;40.47;29.67;;;1.80;99.90;;;;;;5114447;27;20411;-90
2024/01/11 11:40:52;;;;;;;44.28;30.17;;;1.80;99.90;;;;;;5130797;27;20401;-88
2024/01/11 11:43:20;;;;;;;44.97;31.65;;;1.80;99.90;;;;;;5131009;27;20472;-90
2024/01/11 11:45:51;;;;;;;46.60;31.92;;;1.90;99.90;;;;;;5115896;27;20431;-90
2024/01/11 11:48:29;;;;;;;45.47;30.42;;;1.90;99.90;;;;;;5109668;27;20407;-90
2024/01/11 11:51:09;;;;;;;45.78;31.67;;;1.90;99.90;;;;;;5128254;27;20403;-90
2024/01/11 11:53:35;;;;;;;41.47;29.67;;;1.90;99.90;;;;;;5108690;27;21215;-89
2024/01/11 11:56:02;;;;;;;42.20;29.42;;;2.00;99.90;;;;;;5111141;27;20461;-93
2024/01/11 11:58:28;;;;;;;45.17;31.13;;;2.10;99.90;;;;;;5104696;28;20391;-92
2024/01/11 12:00:57;;;;;;;45.60;31.00;;;2.00;99.90;;;;;;5108174;28;20409;-92
2024/01/11 12:03:30;;;;;;;42.55;30.08;;;2.00;99.90;;;;;;5121085;27;20388;-94
2024/01/11 12:05:56;;;;;;;42.63;29.63;;;2.10;99.90;;;;;;5146412;27;20400;-93
2024/01/11 12:08:22;;;;;;;43.33;30.02;;;2.10;99.90;;;;;;5106810;27;20403;-93
2024/01/11 12:10:48;;;;;;;43.97;30.27;;;2.30;99.90;;;;;;5129301;27;20393;-91
2024/01/11 12:13:14;;;;;;;44.97;30.38;;;1.90;99.90;;;;;;5135463;27;20411;-91
2024/01/11 12:15:40;;;;;;;43.45;29.50;;;2.10;99.90;;;;;;5152600;27;20484;-92
2024/01/11 12:18:06;;;;;;;40.63;27.88;;;2.10;99.90;;;;;;5134485;27;20407;-91
2024/01/11 12:20:35;;;;;;;43.85;28.85;;;2.10;99.90;;;;;;5110146;27;20394;-92
2024/01/11 12:23:02;;;;;;;37.73;27.77;;;2.20;99.90;;;;;;5112354;27;20452;-92
2024/01/11 12:30:17;;;;;;;;;;;;;;;;;;;;;
2024/01/11 12:37:05;;;;;;;43.42;28.38;;;2.00;99.90;;;;;;4944610;28;20427;-92